createdAt,value
2019-06-08T00:00:15.285Z,4.52
2019-06-08T00:05:23.093Z,3.46
2019-06-08T00:10:29.202Z,3.83
2019-06-08T00:15:36.829Z,5.22
2019-06-08T00:20:44.436Z,5.05
2019-06-08T00:25:52.336Z,6.10
2019-06-08T00:30:59.941Z,5.71
2019-06-08T00:36:07.570Z,5.87
2019-06-08T00:41:15.161Z,7.01
2019-06-08T00:46:23.634Z,7.92
2019-06-08T00:51:29.893Z,6.26
2019-06-08T00:56:37.485Z,6.13
2019-06-08T01:01:45.137Z,6.28
2019-06-08T01:06:52.726Z,5.56
2019-06-08T01:12:00.324Z,6.24
2019-06-08T01:17:07.932Z,8.46
2019-06-08T01:22:15.544Z,7.48
2019-06-08T01:27:23.922Z,6.56
2019-06-08T01:32:30.623Z,7.64
2019-06-08T01:37:38.195Z,7.74
2019-06-08T01:42:45.785Z,4.85
2019-06-08T01:47:53.384Z,7.89
2019-06-08T01:53:01.005Z,7.89
2019-06-08T01:58:08.980Z,7.26
2019-06-08T02:03:16.570Z,10.13
2019-06-08T02:08:24.424Z,8.23
2019-06-08T02:13:33.020Z,6.75
2019-06-08T02:18:49.009Z,6.82
2019-06-08T02:23:46.389Z,8.13
2019-06-08T02:28:54.008Z,7.21
2019-06-08T02:34:01.620Z,7.97
2019-06-08T02:39:09.248Z,9.52
2019-06-08T02:44:16.869Z,8.19
2019-06-08T02:49:24.498Z,7.69
2019-06-08T02:54:32.509Z,6.44
2019-06-08T02:59:40.863Z,9.26
2019-06-08T03:04:46.440Z,6.94
2019-06-08T03:09:54.057Z,9.25
2019-06-08T03:15:01.674Z,6.22
2019-06-08T03:20:09.285Z,7.15
2019-06-08T03:25:16.885Z,8.46
2019-06-08T03:30:24.485Z,6.84
2019-06-08T03:35:34.948Z,7.10
2019-06-08T03:40:40.555Z,6.63
2019-06-08T03:45:46.482Z,8.36
2019-06-08T03:50:54.077Z,8.37
2019-06-08T03:56:01.718Z,6.88
2019-06-08T04:01:09.325Z,8.47
2019-06-08T04:06:16.941Z,8.45
2019-06-08T04:11:24.546Z,6.09
2019-06-08T04:16:32.132Z,9.60
2019-06-08T04:21:40.281Z,7.54
2019-06-08T04:26:47.194Z,6.43
2019-06-08T04:31:54.094Z,8.21
2019-06-08T04:37:01.697Z,9.12
2019-06-08T04:42:09.379Z,8.86
2019-06-08T04:47:16.977Z,7.79
2019-06-08T04:52:24.662Z,8.46
2019-06-08T04:57:32.253Z,6.27
2019-06-08T05:02:41.702Z,6.86
2019-06-08T05:07:48.529Z,7.11
2019-06-08T05:12:54.141Z,6.51
2019-06-08T05:18:01.764Z,6.87
2019-06-08T05:23:09.361Z,6.38
2019-06-08T05:28:16.961Z,7.11
2019-06-08T05:33:24.557Z,7.08
2019-06-08T05:38:32.234Z,6.13
2019-06-08T05:43:39.825Z,7.10
2019-06-08T05:48:48.012Z,5.81
2019-06-08T05:53:54.583Z,8.47
2019-06-08T05:59:02.271Z,8.23
2019-06-08T06:04:09.888Z,7.38
2019-06-08T06:09:17.512Z,6.78
2019-06-08T06:14:25.136Z,5.32
2019-06-08T06:19:32.955Z,5.55
2019-06-08T06:24:41.728Z,7.99
2019-06-08T06:29:47.965Z,10.02
2019-06-08T06:34:55.470Z,8.46
2019-06-08T06:40:03.193Z,8.02
2019-06-08T06:45:10.831Z,7.75
2019-06-08T06:50:18.446Z,5.39
2019-06-08T06:55:26.034Z,8.95
2019-06-08T07:00:33.730Z,9.27
2019-06-08T07:05:41.317Z,7.45
2019-06-08T07:10:48.942Z,8.40
2019-06-08T07:15:58.090Z,7.05
2019-06-08T07:21:03.688Z,7.35
2019-06-08T07:26:11.349Z,9.48
2019-06-08T07:31:19.001Z,8.11
2019-06-08T07:36:26.617Z,6.76
2019-06-08T07:41:34.217Z,7.07
2019-06-08T07:46:41.825Z,7.15
2019-06-08T07:56:57.045Z,9.94
2019-06-08T08:02:03.873Z,8.30
2019-06-08T08:07:11.487Z,7.89
2019-06-08T08:12:19.119Z,9.58
2019-06-08T08:17:26.696Z,7.40
2019-06-08T08:22:34.385Z,7.63
2019-06-08T08:27:42.008Z,5.57
2019-06-08T08:32:50.732Z,8.50
2019-06-08T08:38:01.188Z,7.48
2019-06-08T08:43:03.868Z,6.91
2019-06-08T08:48:24.627Z,7.36
2019-06-08T08:53:18.633Z,7.04
2019-06-08T08:58:28.064Z,6.16
2019-06-08T09:03:33.808Z,6.40
2019-06-08T09:08:40.565Z,7.04
2019-06-08T09:13:48.826Z,5.20
2019-06-08T09:18:55.798Z,4.62
2019-06-08T09:24:04.082Z,7.27
2019-06-08T09:29:11.025Z,6.11
2019-06-08T09:34:19.255Z,7.67
2019-06-08T09:39:23.929Z,6.93
2019-06-08T09:44:31.502Z,5.85
2019-06-08T09:49:39.130Z,9.75
2019-06-08T09:54:48.078Z,7.34
2019-06-08T09:59:54.838Z,6.98
2019-06-08T10:05:04.471Z,5.45
2019-06-08T10:10:11.020Z,5.54
2019-06-08T10:15:18.627Z,5.89
2019-06-08T10:20:28.853Z,7.05
2019-06-08T10:25:33.372Z,6.38
2019-06-08T10:30:41.005Z,5.71
2019-06-08T10:35:48.609Z,6.77
2019-06-08T10:41:04.872Z,5.55
2019-06-08T10:46:08.518Z,5.70
2019-06-08T10:51:12.762Z,5.89
2019-06-08T10:56:18.976Z,7.45
2019-06-08T11:01:28.136Z,5.80
2019-06-08T11:06:32.725Z,6.26
2019-06-08T11:11:40.318Z,6.55
2019-06-08T11:16:48.023Z,7.00
2019-06-08T11:22:00.456Z,7.32
2019-06-08T11:27:03.468Z,8.34
2019-06-08T11:32:12.294Z,6.98
2019-06-08T11:37:20.844Z,7.14
2019-06-08T11:42:26.245Z,7.03
2019-06-08T11:47:31.375Z,6.52
2019-06-08T11:52:38.933Z,7.38
2019-06-08T11:57:48.771Z,8.43
2019-06-08T12:02:53.752Z,6.56
2019-06-08T12:08:02.829Z,5.30
2019-06-08T12:13:09.762Z,7.05
2019-06-08T12:18:17.968Z,5.50
2019-06-08T12:23:22.870Z,5.39
2019-06-08T12:28:30.525Z,7.68
2019-06-08T12:33:39.139Z,7.29
2019-06-08T12:38:45.520Z,5.96
2019-06-08T12:43:53.126Z,5.36
2019-06-08T12:49:00.795Z,6.90
2019-06-08T12:54:09.958Z,4.65
2019-06-08T12:59:20.859Z,4.83
2019-06-08T13:04:23.811Z,6.02
2019-06-08T13:09:30.092Z,5.43
2019-06-08T13:14:38.545Z,7.63
2019-06-08T13:19:44.805Z,6.10
2019-06-08T13:24:52.402Z,7.77
2019-06-08T13:30:00.055Z,5.44
2019-06-08T13:35:08.217Z,5.01
2019-06-08T13:40:15.226Z,4.52
2019-06-08T13:45:23.522Z,3.80
2019-06-08T13:50:29.622Z,3.56
2019-06-08T13:55:48.574Z,4.63
2019-06-08T14:00:44.434Z,2.39
2019-06-08T14:05:52.033Z,4.30
2019-06-08T14:11:00.789Z,5.91
2019-06-08T14:16:08.882Z,4.62
2019-06-08T14:21:13.990Z,6.64
2019-06-08T14:26:22.868Z,3.54
2019-06-08T14:31:31.548Z,3.01
2019-06-08T14:36:35.898Z,3.26
2019-06-08T14:41:47.536Z,4.02
2019-06-08T14:46:53.455Z,4.96
2019-06-08T14:52:01.072Z,3.19
2019-06-08T14:57:08.678Z,4.27
2019-06-08T15:02:17.770Z,4.14
2019-06-08T15:07:24.915Z,3.62
2019-06-08T15:12:31.464Z,3.52
2019-06-08T15:17:38.078Z,2.89
2019-06-08T15:22:45.553Z,2.86
2019-06-08T15:27:53.172Z,3.09
2019-06-08T15:33:02.442Z,4.18
2019-06-08T15:38:10.041Z,3.13
2019-06-08T15:43:18.252Z,3.94
2019-06-08T15:48:24.833Z,3.75
2019-06-08T15:53:34.031Z,4.35
2019-06-08T15:58:40.470Z,4.12
2019-06-08T16:03:46.885Z,2.72
2019-06-08T16:08:54.501Z,3.64
2019-06-08T16:14:02.120Z,2.83
2019-06-08T16:19:09.805Z,4.15
2019-06-08T16:24:17.421Z,4.37
2019-06-08T16:29:25.053Z,2.29
2019-06-08T16:34:33.596Z,4.05
2019-06-08T16:39:39.804Z,4.29
2019-06-08T16:44:47.497Z,4.61
2019-06-08T16:49:55.108Z,6.04
2019-06-08T16:55:02.720Z,3.63
2019-06-08T17:00:31.273Z,3.76
2019-06-08T17:05:17.729Z,7.41
2019-06-08T17:10:25.317Z,5.39
2019-06-08T17:15:34.041Z,5.45
2019-06-08T17:20:40.662Z,5.10
2019-06-08T17:25:47.341Z,5.44
2019-06-08T17:30:54.933Z,5.77
2019-06-08T17:36:02.595Z,5.58
2019-06-08T17:41:10.189Z,4.79
2019-06-08T17:46:17.822Z,6.40
2019-06-08T17:51:25.719Z,7.81
2019-06-08T17:56:33.027Z,4.95
2019-06-08T18:01:41.759Z,4.33
2019-06-08T18:06:47.753Z,5.30
2019-06-08T18:11:55.453Z,5.77
2019-06-08T18:17:03.047Z,6.32
2019-06-08T18:22:15.483Z,5.25
2019-06-08T18:27:18.274Z,4.77
2019-06-08T18:32:27.058Z,3.58
2019-06-08T18:37:32.178Z,5.00
2019-06-08T18:42:40.880Z,6.64
2019-06-08T18:47:48.377Z,6.66
2019-06-08T18:52:54.176Z,5.16
2019-06-08T18:58:16.109Z,5.37
2019-06-08T19:03:08.960Z,5.21
2019-06-08T19:08:17.997Z,4.16
2019-06-08T19:13:23.729Z,5.20
2019-06-08T19:18:31.345Z,8.15
2019-06-08T19:23:41.664Z,6.84
2019-06-08T19:28:51.596Z,5.09
2019-06-08T19:33:53.614Z,2.86
2019-06-08T19:39:00.885Z,6.13
2019-06-08T19:44:11.781Z,4.75
2019-06-08T19:49:09.417Z,5.19
2019-06-08T19:54:18.331Z,4.47
2019-06-08T19:59:24.218Z,5.15
2019-06-08T20:04:32.075Z,5.44
2019-06-08T20:09:41.002Z,4.33
2019-06-08T20:14:48.407Z,6.07
2019-06-08T20:19:54.109Z,4.63
2019-06-08T20:25:01.733Z,4.25
2019-06-08T20:30:12.128Z,5.21
2019-06-08T20:35:17.452Z,5.27
2019-06-08T20:40:24.012Z,5.16
2019-06-08T20:45:31.617Z,4.67
2019-06-08T20:50:39.208Z,3.63
2019-06-08T20:55:48.212Z,4.36
2019-06-08T21:00:54.267Z,7.11
2019-06-08T21:06:01.015Z,5.28
2019-06-08T21:11:08.764Z,5.05
2019-06-08T21:16:18.205Z,5.04
2019-06-08T21:21:23.540Z,5.91
2019-06-08T21:26:31.152Z,5.60
2019-06-08T21:31:38.780Z,7.38
2019-06-08T21:36:49.079Z,5.69
2019-06-08T21:41:57.312Z,5.60
2019-06-08T21:47:01.595Z,6.60
2019-06-08T21:52:08.061Z,4.53
2019-06-08T21:57:18.393Z,5.22
2019-06-08T22:02:23.149Z,5.87
2019-06-08T22:07:30.782Z,6.76
2019-06-08T22:12:40.391Z,5.76
2019-06-08T22:17:47.688Z,5.93
2019-06-08T22:22:53.356Z,5.68
2019-06-08T22:28:01.027Z,7.26
2019-06-08T22:33:07.229Z,5.96
2019-06-08T22:38:17.217Z,7.27
2019-06-08T22:43:22.084Z,5.93
2019-06-08T22:48:29.568Z,6.49
2019-06-08T22:53:38.406Z,6.04
2019-06-08T22:58:44.353Z,7.25
2019-06-08T23:03:51.993Z,5.68
2019-06-08T23:09:01.465Z,6.24
2019-06-08T23:14:13.037Z,5.86
2019-06-08T23:19:13.928Z,6.73
2019-06-08T23:24:21.529Z,5.32
2019-06-08T23:29:29.122Z,6.61
2019-06-08T23:34:38.342Z,6.46
2019-06-08T23:39:43.872Z,5.51
2019-06-08T23:44:51.485Z,6.47
2019-06-08T23:50:00.811Z,8.12
2019-06-08T23:55:09.885Z,7.39
